createdAt,value
2022-11-19T00:01:24.558Z,5.68
2022-11-19T00:03:53.183Z,5.60
2022-11-19T00:06:22.657Z,5.65
2022-11-19T00:08:49.821Z,5.70
2022-11-19T00:11:40.173Z,6.00
2022-11-19T00:14:08.516Z,6.30
2022-11-19T00:16:35.204Z,5.70
2022-11-19T00:19:01.820Z,5.80
2022-11-19T00:21:28.455Z,5.75
2022-11-19T00:23:55.777Z,5.93
2022-11-19T00:26:22.855Z,5.93
2022-11-19T00:28:49.733Z,6.05
2022-11-19T00:31:17.209Z,5.30
2022-11-19T00:33:45.469Z,5.60
2022-11-19T00:36:14.998Z,5.85
2022-11-19T00:38:42.496Z,5.80
2022-11-19T00:41:09.173Z,5.40
2022-11-19T00:43:48.640Z,5.75
2022-11-19T00:46:15.582Z,7.05
2022-11-19T00:48:42.367Z,6.78
2022-11-19T00:51:09.841Z,7.60
2022-11-19T00:53:37.029Z,7.95
2022-11-19T00:56:06.784Z,8.02
2022-11-19T00:58:33.649Z,7.55
2022-11-19T01:01:00.372Z,7.90
2022-11-19T01:03:27.480Z,8.57
2022-11-19T01:05:54.326Z,7.20
2022-11-19T01:08:22.048Z,7.90
2022-11-19T01:10:48.814Z,7.38
2022-11-19T01:13:33.989Z,7.50
2022-11-19T01:16:02.066Z,8.05
2022-11-19T01:18:29.057Z,7.18
2022-11-19T01:20:55.785Z,7.20
2022-11-19T01:23:22.913Z,8.23
2022-11-19T01:25:49.695Z,8.30
2022-11-19T01:28:16.336Z,8.02
2022-11-19T01:30:43.976Z,8.43
2022-11-19T01:33:10.805Z,7.68
2022-11-19T01:35:37.691Z,8.55
2022-11-19T01:38:05.581Z,7.85
2022-11-19T01:40:33.117Z,8.70
2022-11-19T01:42:59.766Z,8.32
2022-11-19T01:45:33.703Z,8.50
2022-11-19T01:48:11.163Z,8.15
2022-11-19T01:50:42.782Z,8.15
2022-11-19T01:53:10.005Z,8.77
2022-11-19T01:55:38.655Z,9.18
2022-11-19T01:58:07.132Z,8.10
2022-11-19T02:00:34.251Z,8.43
2022-11-19T02:03:01.055Z,8.93
2022-11-19T02:05:28.549Z,9.00
2022-11-19T02:07:59.002Z,8.48
2022-11-19T02:10:38.356Z,9.00
2022-11-19T02:13:42.012Z,8.95
2022-11-19T02:16:37.459Z,8.82
2022-11-19T02:19:33.816Z,9.77
2022-11-19T02:22:09.544Z,9.10
2022-11-19T02:24:59.074Z,9.50
2022-11-19T02:28:00.438Z,8.40
2022-11-19T02:30:37.377Z,8.50
2022-11-19T02:33:03.968Z,9.20
2022-11-19T02:35:42.612Z,9.40
2022-11-19T02:38:42.531Z,8.63
2022-11-19T02:41:40.014Z,9.23
2022-11-19T02:44:41.162Z,9.55
2022-11-19T02:47:13.130Z,8.75
2022-11-19T02:49:45.106Z,10.60
2022-11-19T02:52:14.575Z,9.43
2022-11-19T02:54:41.308Z,10.85
2022-11-19T02:57:11.044Z,9.57
2022-11-19T03:00:01.594Z,9.02
2022-11-19T03:02:51.618Z,9.70
2022-11-19T03:05:24.574Z,9.13
2022-11-19T03:07:51.320Z,10.10
2022-11-19T03:10:20.029Z,9.55
2022-11-19T03:13:28.264Z,10.73
2022-11-19T03:16:15.326Z,9.32
2022-11-19T03:18:53.691Z,9.85
2022-11-19T03:21:38.536Z,9.30
2022-11-19T03:24:31.424Z,9.85
2022-11-19T03:27:21.645Z,10.32
2022-11-19T03:29:51.740Z,10.15
2022-11-19T03:32:31.161Z,11.05
2022-11-19T03:35:03.197Z,11.02
2022-11-19T03:37:31.242Z,10.45
2022-11-19T03:40:00.742Z,11.27
2022-11-19T03:42:28.034Z,10.93
2022-11-19T03:45:04.628Z,10.70
2022-11-19T03:47:35.649Z,11.48
2022-11-19T03:50:26.988Z,10.20
2022-11-19T03:52:54.189Z,10.32
2022-11-19T03:55:27.343Z,10.52
2022-11-19T03:57:53.972Z,10.20
2022-11-19T04:00:20.714Z,10.27
2022-11-19T04:02:47.348Z,11.23
2022-11-19T04:05:14.122Z,12.10
2022-11-19T04:07:40.766Z,11.15
2022-11-19T04:10:07.752Z,11.80
2022-11-19T04:12:34.384Z,11.07
2022-11-19T04:15:01.016Z,11.77
2022-11-19T04:17:27.660Z,11.82
2022-11-19T04:19:54.292Z,10.85
2022-11-19T04:22:20.954Z,11.02
2022-11-19T04:24:47.643Z,11.43
2022-11-19T04:27:14.394Z,10.85
2022-11-19T04:29:41.021Z,10.20
2022-11-19T04:32:07.725Z,10.88
2022-11-19T04:34:34.384Z,11.35
2022-11-19T04:37:01.092Z,11.55
2022-11-19T04:39:27.757Z,10.85
2022-11-19T04:41:54.397Z,10.43
2022-11-19T04:44:21.182Z,12.10
2022-11-19T04:46:47.855Z,10.55
2022-11-19T04:49:14.591Z,10.40
2022-11-19T04:51:41.308Z,10.13
2022-11-19T04:54:10.757Z,10.85
2022-11-19T04:56:37.629Z,10.38
2022-11-19T04:59:04.672Z,10.70
2022-11-19T05:01:31.467Z,10.82
2022-11-19T05:03:58.228Z,11.07
2022-11-19T05:06:25.138Z,10.88
2022-11-19T05:08:51.760Z,10.77
2022-11-19T05:11:18.420Z,10.73
2022-11-19T05:13:45.073Z,10.13
2022-11-19T05:16:11.773Z,10.20
2022-11-19T05:18:38.462Z,9.57
2022-11-19T05:21:05.479Z,10.05
2022-11-19T05:23:32.095Z,8.85
2022-11-19T05:25:58.893Z,8.90
2022-11-19T05:28:37.939Z,8.80
2022-11-19T05:31:05.695Z,8.80
2022-11-19T05:33:34.208Z,8.77
2022-11-19T05:36:01.748Z,8.52
2022-11-19T05:38:28.365Z,7.40
2022-11-19T05:40:55.019Z,7.40
2022-11-19T05:43:21.681Z,7.40
2022-11-19T05:45:48.362Z,7.85
2022-11-19T05:48:15.513Z,7.90
2022-11-19T05:50:42.859Z,8.18
2022-11-19T05:53:10.070Z,8.75
2022-11-19T05:55:36.862Z,8.27
2022-11-19T05:58:03.530Z,8.32
2022-11-19T06:00:30.198Z,8.77
2022-11-19T06:02:56.919Z,8.70
2022-11-19T06:05:23.597Z,8.13
2022-11-19T06:07:50.250Z,8.65
2022-11-19T06:10:16.898Z,8.50
2022-11-19T06:12:45.708Z,7.75
2022-11-19T06:15:13.072Z,8.80
2022-11-19T06:17:39.715Z,8.48
2022-11-19T06:20:08.783Z,8.27
2022-11-19T06:22:36.313Z,8.88
2022-11-19T06:25:04.142Z,8.73
2022-11-19T06:27:30.881Z,8.20
2022-11-19T06:29:57.526Z,12.13
2022-11-19T06:32:24.209Z,9.30
2022-11-19T06:34:50.820Z,9.18
2022-11-19T06:37:17.469Z,9.23
2022-11-19T06:39:44.092Z,10.30
2022-11-19T06:42:29.771Z,9.52
2022-11-19T06:44:56.371Z,11.05
2022-11-19T06:47:22.987Z,9.55
2022-11-19T06:49:49.590Z,9.60
2022-11-19T06:52:16.209Z,9.70
2022-11-19T06:54:43.431Z,9.85
2022-11-19T06:57:10.530Z,10.30
2022-11-19T06:59:38.906Z,9.48
2022-11-19T07:02:06.114Z,9.88
2022-11-19T07:04:32.849Z,9.80
2022-11-19T07:06:59.576Z,10.38
2022-11-19T07:09:26.239Z,9.88
2022-11-19T07:11:52.937Z,9.15
2022-11-19T07:14:19.563Z,9.93
2022-11-19T07:16:46.240Z,10.68
2022-11-19T07:19:12.974Z,9.25
2022-11-19T07:21:39.786Z,9.65
2022-11-19T07:24:09.008Z,9.95
2022-11-19T07:26:37.064Z,9.57
2022-11-19T07:29:07.083Z,9.77
2022-11-19T07:31:34.516Z,9.35
2022-11-19T07:34:01.396Z,10.00
2022-11-19T07:36:28.146Z,9.88
2022-11-19T07:38:54.777Z,10.73
2022-11-19T07:41:39.947Z,10.75
2022-11-19T07:44:06.740Z,11.00
2022-11-19T07:46:33.468Z,9.85
2022-11-19T07:49:00.125Z,10.55
2022-11-19T07:51:27.325Z,10.73
2022-11-19T07:53:55.475Z,9.52
2022-11-19T07:56:22.892Z,10.57
2022-11-19T07:58:49.631Z,10.80
2022-11-19T08:01:19.153Z,9.52
2022-11-19T08:03:50.593Z,10.18
2022-11-19T08:06:21.405Z,9.38
2022-11-19T08:08:48.407Z,10.30
2022-11-19T08:11:16.742Z,11.35
2022-11-19T08:13:43.699Z,10.25
2022-11-19T08:16:12.959Z,9.27
2022-11-19T08:18:39.755Z,11.50
2022-11-19T08:21:11.734Z,9.55
2022-11-19T08:23:39.501Z,9.77
2022-11-19T08:26:07.556Z,9.98
2022-11-19T08:28:34.372Z,9.40
2022-11-19T08:31:09.069Z,10.52
2022-11-19T08:33:36.393Z,9.50
2022-11-19T08:36:03.777Z,10.82
2022-11-19T08:38:34.543Z,9.50
2022-11-19T08:41:22.360Z,10.55
2022-11-19T08:43:49.001Z,9.75
2022-11-19T08:46:15.624Z,10.05
2022-11-19T08:48:42.487Z,9.80
2022-11-19T08:51:14.698Z,9.90
2022-11-19T08:53:41.354Z,9.77
2022-11-19T08:56:08.482Z,10.98
2022-11-19T08:58:35.943Z,9.70
2022-11-19T09:01:10.671Z,9.02
2022-11-19T09:03:37.717Z,8.43
2022-11-19T09:06:05.459Z,9.93
2022-11-19T09:08:32.525Z,9.90
2022-11-19T09:10:59.219Z,9.65
2022-11-19T09:13:25.983Z,9.35
2022-11-19T09:15:52.622Z,9.68
2022-11-19T09:18:19.316Z,9.43
2022-11-19T09:20:45.996Z,9.27
2022-11-19T09:23:12.663Z,9.80
2022-11-19T09:25:39.302Z,9.20
2022-11-19T09:28:05.967Z,9.57
2022-11-19T09:30:32.645Z,9.68
2022-11-19T09:33:00.153Z,9.75
2022-11-19T09:35:26.772Z,9.30
2022-11-19T09:37:53.424Z,10.10
2022-11-19T09:40:23.160Z,9.73
2022-11-19T09:43:10.299Z,10.63
2022-11-19T09:45:58.098Z,9.18
2022-11-19T09:48:34.461Z,9.18
2022-11-19T09:51:14.007Z,9.90
2022-11-19T09:53:55.888Z,9.85
2022-11-19T09:56:30.910Z,9.35
2022-11-19T09:58:58.870Z,9.30
2022-11-19T10:01:28.181Z,10.05
2022-11-19T10:03:55.065Z,9.23
2022-11-19T10:06:25.477Z,9.27
2022-11-19T10:08:55.739Z,9.65
2022-11-19T10:11:48.525Z,9.32
2022-11-19T10:14:52.762Z,10.32
2022-11-19T10:17:34.214Z,9.38
2022-11-19T10:20:03.828Z,9.68
2022-11-19T10:23:12.751Z,9.65
2022-11-19T10:25:44.301Z,9.48
2022-11-19T10:28:10.947Z,9.80
2022-11-19T10:30:40.856Z,9.73
2022-11-19T10:33:18.609Z,8.70
2022-11-19T10:35:53.408Z,8.23
2022-11-19T10:38:42.950Z,8.13
2022-11-19T10:41:17.715Z,8.10
2022-11-19T10:43:50.476Z,8.77
2022-11-19T10:46:22.109Z,7.80
2022-11-19T10:48:54.220Z,8.15
2022-11-19T10:51:24.889Z,8.75
2022-11-19T10:53:53.380Z,8.73
2022-11-19T10:56:22.898Z,8.32
2022-11-19T10:58:57.404Z,7.85
2022-11-19T11:01:36.641Z,8.07
2022-11-19T11:04:21.128Z,7.75
2022-11-19T11:06:57.961Z,8.18
2022-11-19T11:09:34.595Z,8.02
2022-11-19T11:12:35.938Z,8.75
2022-11-19T11:15:15.544Z,7.70
2022-11-19T11:17:44.594Z,8.32
2022-11-19T11:20:17.347Z,8.63
2022-11-19T11:22:48.512Z,9.38
2022-11-19T11:25:27.352Z,7.80
2022-11-19T11:28:15.424Z,9.20
2022-11-19T11:31:03.099Z,8.60
2022-11-19T11:33:54.125Z,8.15
2022-11-19T11:36:25.330Z,9.55
2022-11-19T11:38:55.244Z,8.43
2022-11-19T11:42:05.542Z,8.82
2022-11-19T11:44:32.415Z,8.30
2022-11-19T11:47:03.200Z,10.40
2022-11-19T11:49:35.060Z,8.80
2022-11-19T11:52:06.877Z,11.15
2022-11-19T11:54:33.638Z,9.27
2022-11-19T11:57:18.976Z,9.85
2022-11-19T11:59:46.030Z,8.95
2022-11-19T12:02:32.348Z,10.07
2022-11-19T12:05:07.464Z,9.27
2022-11-19T12:07:46.032Z,9.80
2022-11-19T12:10:21.851Z,10.00
2022-11-19T12:13:14.639Z,9.70
2022-11-19T12:16:09.776Z,8.30
2022-11-19T12:18:54.677Z,9.50
2022-11-19T12:21:42.224Z,9.68
2022-11-19T12:24:17.702Z,10.30
2022-11-19T12:26:59.174Z,9.43
2022-11-19T12:29:40.962Z,9.23
2022-11-19T12:32:20.453Z,9.60
2022-11-19T12:34:56.411Z,9.98
2022-11-19T12:37:31.995Z,9.20
2022-11-19T12:40:25.032Z,10.30
2022-11-19T12:43:21.322Z,9.63
2022-11-19T12:46:01.246Z,9.18
2022-11-19T12:48:46.347Z,9.45
2022-11-19T12:51:18.852Z,9.05
2022-11-19T12:53:45.421Z,10.50
2022-11-19T12:56:42.808Z,9.85
2022-11-19T12:59:38.730Z,9.98
2022-11-19T13:02:36.542Z,9.85
2022-11-19T13:05:32.949Z,9.80
2022-11-19T13:08:13.140Z,9.90
2022-11-19T13:10:45.436Z,9.18
2022-11-19T13:13:16.857Z,10.35
2022-11-19T13:15:48.184Z,10.45
2022-11-19T13:18:17.434Z,9.48
2022-11-19T13:21:01.442Z,9.60
2022-11-19T13:23:33.939Z,9.30
2022-11-19T13:26:05.911Z,9.60
2022-11-19T13:28:57.023Z,9.40
2022-11-19T13:31:48.585Z,10.10
2022-11-19T13:34:43.215Z,9.50
2022-11-19T13:37:58.653Z,9.52
2022-11-19T13:40:51.552Z,10.13
2022-11-19T13:43:38.865Z,9.70
2022-11-19T13:46:11.201Z,10.70
2022-11-19T13:48:43.258Z,11.05
2022-11-19T13:51:31.559Z,10.60
2022-11-19T13:54:03.016Z,10.02
2022-11-19T13:56:45.948Z,10.80
2022-11-19T13:59:42.726Z,9.77
2022-11-19T14:02:47.069Z,10.10
2022-11-19T14:05:31.807Z,10.50
2022-11-19T14:08:28.392Z,11.35
2022-11-19T14:11:00.960Z,9.77
2022-11-19T14:13:56.806Z,9.93
2022-11-19T14:17:12.300Z,12.25
2022-11-19T14:20:08.490Z,11.30
2022-11-19T14:23:11.907Z,10.20
2022-11-19T14:26:09.083Z,10.32
2022-11-19T14:28:48.494Z,12.05
2022-11-19T14:31:17.338Z,12.15
2022-11-19T14:33:46.740Z,10.93
2022-11-19T14:36:28.348Z,12.45
2022-11-19T14:38:58.559Z,10.05
2022-11-19T14:41:35.448Z,11.18
2022-11-19T14:44:11.192Z,11.20
2022-11-19T14:46:43.068Z,10.98
2022-11-19T14:49:23.881Z,10.98
2022-11-19T14:51:56.620Z,11.43
2022-11-19T14:54:32.241Z,11.50
2022-11-19T14:57:21.257Z,11.18
2022-11-19T14:59:51.169Z,10.60
2022-11-19T15:02:24.114Z,11.63
2022-11-19T15:04:59.938Z,14.18
2022-11-19T15:07:52.728Z,12.13
2022-11-19T15:10:33.005Z,12.05
2022-11-19T15:13:24.573Z,11.57
2022-11-19T15:15:54.823Z,11.65
2022-11-19T15:18:40.207Z,10.50
2022-11-19T15:21:44.511Z,12.55
2022-11-19T15:24:19.438Z,12.18
2022-11-19T15:27:19.465Z,11.77
2022-11-19T15:30:03.552Z,11.18
2022-11-19T15:32:48.863Z,11.52
2022-11-19T15:35:30.521Z,11.82
2022-11-19T15:38:09.161Z,11.88
2022-11-19T15:40:36.673Z,11.45
2022-11-19T15:43:21.999Z,11.68
2022-11-19T15:46:06.008Z,11.55
2022-11-19T15:48:57.821Z,11.38
2022-11-19T15:51:24.498Z,12.20
2022-11-19T15:53:58.652Z,12.32
2022-11-19T15:56:29.131Z,11.93
2022-11-19T15:58:55.906Z,13.48
2022-11-19T16:01:23.036Z,12.30
2022-11-19T16:03:52.510Z,11.48
2022-11-19T16:06:25.969Z,12.45
2022-11-19T16:08:57.914Z,11.73
2022-11-19T16:11:47.214Z,12.23
2022-11-19T16:14:39.897Z,13.50
2022-11-19T16:17:39.790Z,11.70
2022-11-19T16:20:12.397Z,12.50
2022-11-19T16:22:52.619Z,11.60
2022-11-19T16:25:24.793Z,11.60
2022-11-19T16:27:56.064Z,12.43
2022-11-19T16:30:28.029Z,12.80
2022-11-19T16:32:59.032Z,13.85
2022-11-19T16:35:29.275Z,13.40
2022-11-19T16:37:58.334Z,12.35
2022-11-19T16:40:25.930Z,13.02
2022-11-19T16:42:59.241Z,13.05
2022-11-19T16:45:27.877Z,13.07
2022-11-19T16:47:59.328Z,12.80
2022-11-19T16:50:27.464Z,12.50
2022-11-19T16:52:55.367Z,12.70
2022-11-19T16:55:24.973Z,12.68
2022-11-19T16:57:57.509Z,12.68
2022-11-19T17:00:29.564Z,13.40
2022-11-19T17:02:57.829Z,13.30
2022-11-19T17:05:28.537Z,13.63
2022-11-19T17:08:18.769Z,12.70
2022-11-19T17:10:45.574Z,12.80
2022-11-19T17:13:33.285Z,12.40
2022-11-19T17:16:18.223Z,12.50
2022-11-19T17:18:44.942Z,13.27
2022-11-19T17:21:32.179Z,12.13
2022-11-19T17:23:58.949Z,14.35
2022-11-19T17:26:27.480Z,12.80
2022-11-19T17:29:16.788Z,13.13
2022-11-19T17:31:47.917Z,14.10
2022-11-19T17:34:33.857Z,12.35
2022-11-19T17:37:00.667Z,13.80
2022-11-19T17:39:27.281Z,14.18
2022-11-19T17:42:15.472Z,13.88
2022-11-19T17:44:42.234Z,12.88
2022-11-19T17:47:23.294Z,12.90
2022-11-19T17:49:50.976Z,14.20
2022-11-19T17:52:31.810Z,14.00
2022-11-19T17:55:20.288Z,14.77
2022-11-19T17:57:46.924Z,14.02
2022-11-19T18:00:14.356Z,12.88
2022-11-19T18:02:41.036Z,13.70
2022-11-19T18:05:16.458Z,14.57
2022-11-19T18:07:43.131Z,12.98
2022-11-19T18:10:10.252Z,13.45
2022-11-19T18:12:36.966Z,13.48
2022-11-19T18:15:04.507Z,14.63
2022-11-19T18:17:31.145Z,14.45
2022-11-19T18:19:57.859Z,14.73
2022-11-19T18:22:24.565Z,13.20
2022-11-19T18:24:52.465Z,13.40
2022-11-19T18:27:19.224Z,14.20
2022-11-19T18:29:45.872Z,13.57
2022-11-19T18:32:15.833Z,15.00
2022-11-19T18:34:43.628Z,14.48
2022-11-19T18:37:10.364Z,13.95
2022-11-19T18:39:37.078Z,12.75
2022-11-19T18:42:04.142Z,13.38
2022-11-19T18:44:33.624Z,14.90
2022-11-19T18:47:08.441Z,14.20
2022-11-19T18:49:35.638Z,13.95
2022-11-19T18:52:04.515Z,12.77
2022-11-19T18:54:31.511Z,13.70
2022-11-19T18:56:58.533Z,13.60
2022-11-19T18:59:25.357Z,13.30
2022-11-19T19:01:55.592Z,14.32
2022-11-19T19:04:23.233Z,13.82
2022-11-19T19:06:50.203Z,13.40
2022-11-19T19:09:20.184Z,13.65
2022-11-19T19:12:12.590Z,15.07
2022-11-19T19:14:40.048Z,14.25
2022-11-19T19:17:06.686Z,15.88
2022-11-19T19:19:33.313Z,13.82
2022-11-19T19:22:00.431Z,13.50
2022-11-19T19:24:27.330Z,15.70
2022-11-19T19:26:54.203Z,14.05
2022-11-19T19:29:21.220Z,14.00
2022-11-19T19:31:48.150Z,14.15
2022-11-19T19:34:14.867Z,13.73
2022-11-19T19:36:46.445Z,13.60
2022-11-19T19:39:17.050Z,13.52
2022-11-19T19:41:43.834Z,14.95
2022-11-19T19:44:10.995Z,15.00
2022-11-19T19:46:37.637Z,14.05
2022-11-19T19:49:04.398Z,14.25
2022-11-19T19:51:32.584Z,14.35
2022-11-19T19:53:59.801Z,15.13
2022-11-19T19:56:28.638Z,13.35
2022-11-19T19:58:56.297Z,14.27
2022-11-19T20:01:26.096Z,14.07
2022-11-19T20:03:54.827Z,15.20
2022-11-19T20:06:23.197Z,15.95
2022-11-19T20:08:49.971Z,13.15
2022-11-19T20:11:20.245Z,13.73
2022-11-19T20:13:47.569Z,14.18
2022-11-19T20:16:18.299Z,14.40
2022-11-19T20:18:46.625Z,14.32
2022-11-19T20:21:16.359Z,14.45
2022-11-19T20:23:43.629Z,14.52
2022-11-19T20:26:20.262Z,14.35
2022-11-19T20:28:47.794Z,14.23
2022-11-19T20:31:19.219Z,13.98
2022-11-19T20:33:47.372Z,13.98
2022-11-19T20:36:15.496Z,13.52
2022-11-19T20:38:45.889Z,13.35
2022-11-19T20:41:33.002Z,12.68
2022-11-19T20:44:19.503Z,14.02
2022-11-19T20:46:46.816Z,15.73
2022-11-19T20:49:16.945Z,15.43
2022-11-19T20:51:44.684Z,14.20
2022-11-19T20:54:12.117Z,14.52
2022-11-19T20:56:39.465Z,15.52
2022-11-19T20:59:06.597Z,13.63
2022-11-19T21:01:34.539Z,14.25
2022-11-19T21:04:01.477Z,14.55
2022-11-19T21:06:28.485Z,16.17
2022-11-19T21:08:55.684Z,14.98
2022-11-19T21:11:22.366Z,14.48
2022-11-19T21:13:49.020Z,14.60
2022-11-19T21:16:21.392Z,14.07
2022-11-19T21:18:48.273Z,15.80
2022-11-19T21:21:16.560Z,14.23
2022-11-19T21:23:43.652Z,15.82
2022-11-19T21:26:16.852Z,15.10
2022-11-19T21:28:47.764Z,14.73
2022-11-19T21:31:19.332Z,13.77
2022-11-19T21:33:46.066Z,14.65
2022-11-19T21:36:13.422Z,15.90
2022-11-19T21:38:40.525Z,15.75
2022-11-19T21:41:07.453Z,16.40
2022-11-19T21:43:35.142Z,15.13
2022-11-19T21:46:01.855Z,14.60
2022-11-19T21:48:28.526Z,15.50
2022-11-19T21:50:55.212Z,14.70
2022-11-19T21:53:21.897Z,15.65
2022-11-19T21:55:49.452Z,15.77
2022-11-19T21:58:16.555Z,17.13
2022-11-19T22:00:44.170Z,15.55
2022-11-19T22:03:10.877Z,15.95
2022-11-19T22:05:37.656Z,16.55
2022-11-19T22:08:04.328Z,15.60
2022-11-19T22:10:30.985Z,15.10
2022-11-19T22:12:58.640Z,15.52
2022-11-19T22:15:26.331Z,14.68
2022-11-19T22:17:53.002Z,14.90
2022-11-19T22:20:19.823Z,16.25
2022-11-19T22:22:46.577Z,15.60
2022-11-19T22:25:13.849Z,16.10
2022-11-19T22:27:41.693Z,15.60
2022-11-19T22:30:10.170Z,14.88
2022-11-19T22:32:37.213Z,14.68
2022-11-19T22:35:04.719Z,15.63
2022-11-19T22:37:31.924Z,15.93
2022-11-19T22:39:58.713Z,14.65
2022-11-19T22:42:25.437Z,14.50
2022-11-19T22:44:52.916Z,16.20
2022-11-19T22:47:19.611Z,15.75
2022-11-19T22:49:46.211Z,15.60
2022-11-19T22:52:14.550Z,16.02
2022-11-19T22:54:41.898Z,16.63
2022-11-19T22:57:09.406Z,16.55
2022-11-19T22:59:36.100Z,15.27
2022-11-19T23:02:02.903Z,14.50
2022-11-19T23:04:29.635Z,15.90
2022-11-19T23:06:56.584Z,15.75
2022-11-19T23:09:23.582Z,16.17
2022-11-19T23:12:08.710Z,15.40
2022-11-19T23:14:35.362Z,16.33
2022-11-19T23:17:01.990Z,14.18
2022-11-19T23:19:28.628Z,15.32
2022-11-19T23:21:55.245Z,15.00
2022-11-19T23:24:21.876Z,15.90
2022-11-19T23:26:48.529Z,14.88
2022-11-19T23:29:15.194Z,14.38
2022-11-19T23:31:41.856Z,13.95
2022-11-19T23:34:08.551Z,13.95
2022-11-19T23:36:38.398Z,16.58
2022-11-19T23:39:06.633Z,14.75
2022-11-19T23:41:33.962Z,14.55
2022-11-19T23:44:01.233Z,15.32
2022-11-19T23:46:30.340Z,15.73
2022-11-19T23:48:58.491Z,16.25
2022-11-19T23:51:30.688Z,14.95
2022-11-19T23:53:58.114Z,15.43
2022-11-19T23:56:25.692Z,14.80
2022-11-19T23:58:52.873Z,14.88
